Chicago Rockford International Airport
KRFD : now visible

Airfield :











YOU CAN JOIN US ON...

 
LOGIN :

Register | Disclaimer

   EN    FR    IT 

 









Legend :    VFR   Marginal VFR   IFR   Intensive IFR   Very Intensive IFR
Visi :
Ceiling :
>= 8 km
>= 3000ft
5 to 8 km
1000 to 3000 ft
1500m to 5 km
500 to 1000 ft
800 to 1500m
200 to 500 ft
< 800m
< 200 ft
Symbols :   Thunderstorms  Fog  Heavy snow  Heavy precipitations  Wind > 20 kt







- Airport Elevation : 742 ft
- IATA code : RFD


KRFD - Chicago Rockford International

CURRENT METAR :
  • 210454Z 24013G21KT 10SM OVC037 00/M06 A2988 RMK AO2 PK WND 26026/0356 SLP126 T00001056

EXPIRED METARs :
  • 210354Z 26016G31KT 10SM OVC037 01/M06 A2984 RMK AO2 PK WND 26034/0309 SLP113 T00061061
  • 210254Z 26016G26KT 10SM FEW022 OVC031 01/M03 A2981 RMK AO2 PK WND 25026/0251 SLP102 T00111033 53027
  • 210210Z 24013G26KT 10SM SCT026 OVC034 01/M03 A2979 RMK AO2 PK WND 27026/0201 T00111028

TAF KRFD
Valid from the 21 at 03:00 until the 22 at 00:00 UTC


210300Z 2103/2124 25015G24KT P6SM SCT025 OVC035
FM210600 26011KT P6SM SCT025 BKN250
FM211400 27010KT P6SM FEW025 BKN250
KZAU FIR / North America



MET'MAP, your aeronautical weather chart ! - Copyright ORBIFLY December 2007 - Disclaimer

ORBIFLY MET'MAP TEAM :

Programming & Development : Alexandra Zaïnal
Concept & Development : Baudouin d'Aumeries
Co-Development & Prog : Marc-Olivier Méhu
Technical & hardware support : Manuel Goepfert

Contact : metmap@orbifly.com




SOURCES & CREDITS :

   NOAA       Earth
Advisory